createdAt,value
2023-03-17T00:04:59.258Z,55.10
2023-03-17T00:10:27.032Z,55.80
2023-03-17T00:15:54.954Z,54.77
2023-03-17T00:21:22.621Z,55.02
2023-03-17T00:26:43.659Z,55.24
2023-03-17T00:32:05.100Z,55.17
2023-03-17T00:37:25.843Z,54.94
2023-03-17T00:42:46.518Z,54.97
2023-03-17T00:48:21.831Z,55.14
2023-03-17T00:53:43.218Z,54.99
2023-03-17T00:59:05.047Z,54.89
2023-03-17T01:04:26.108Z,54.98
2023-03-17T01:09:46.693Z,55.23
2023-03-17T01:15:07.841Z,54.99
2023-03-17T01:20:32.066Z,54.89
2023-03-17T01:25:52.882Z,55.10
2023-03-17T01:31:13.655Z,54.60
2023-03-17T01:36:34.477Z,55.10
2023-03-17T01:42:00.400Z,54.91
2023-03-17T01:47:24.579Z,55.26
2023-03-17T01:52:45.783Z,55.21
2023-03-17T01:58:07.411Z,54.54
2023-03-17T02:03:29.881Z,54.98
2023-03-17T02:08:50.919Z,54.82
2023-03-17T02:14:12.365Z,54.96
2023-03-17T02:19:35.322Z,55.06
2023-03-17T02:24:59.510Z,55.24
2023-03-17T02:30:24.246Z,54.76
2023-03-17T02:35:44.978Z,54.89
2023-03-17T02:41:07.268Z,54.78
2023-03-17T02:46:28.640Z,54.98
2023-03-17T02:51:53.436Z,55.10
2023-03-17T02:57:14.187Z,54.89
2023-03-17T03:02:34.810Z,54.78
2023-03-17T03:07:55.681Z,54.95
2023-03-17T03:13:16.854Z,54.67
2023-03-17T03:18:37.860Z,54.25
2023-03-17T03:23:58.629Z,54.76
2023-03-17T03:29:19.689Z,54.62
2023-03-17T03:34:40.585Z,54.97
2023-03-17T03:40:01.479Z,55.02
2023-03-17T03:45:22.407Z,55.12
2023-03-17T03:50:43.265Z,55.47
2023-03-17T03:56:04.393Z,54.94
2023-03-17T04:01:25.419Z,55.36
2023-03-17T04:06:46.402Z,55.27
2023-03-17T04:12:08.326Z,55.28
2023-03-17T04:17:29.316Z,55.68
2023-03-17T04:22:50.043Z,54.99
2023-03-17T04:28:12.248Z,54.95
2023-03-17T04:33:33.581Z,55.25
2023-03-17T04:38:54.355Z,54.89
2023-03-17T04:44:15.081Z,55.13
2023-03-17T04:49:35.608Z,54.87
2023-03-17T04:54:56.548Z,54.61
2023-03-17T05:00:18.237Z,55.20
2023-03-17T05:05:38.914Z,55.49
2023-03-17T05:10:59.433Z,55.23
2023-03-17T05:16:20.227Z,54.61
2023-03-17T05:21:41.517Z,55.21
2023-03-17T05:27:02.182Z,55.34
2023-03-17T05:32:23.207Z,55.54
2023-03-17T05:37:44.753Z,55.20
2023-03-17T05:43:06.236Z,55.24
2023-03-17T05:48:27.082Z,54.73
2023-03-17T05:53:47.853Z,55.27
2023-03-17T05:59:09.489Z,55.12
2023-03-17T06:04:30.202Z,54.86
2023-03-17T06:09:50.793Z,55.89
2023-03-17T06:15:11.564Z,55.19
2023-03-17T06:20:33.458Z,55.03
2023-03-17T06:25:54.431Z,54.87
2023-03-17T06:31:15.633Z,54.40
2023-03-17T06:36:38.613Z,54.80
2023-03-17T06:41:59.145Z,55.38
2023-03-17T06:47:20.199Z,54.79
2023-03-17T06:52:41.348Z,54.24
2023-03-17T06:58:03.139Z,54.23
2023-03-17T07:03:25.561Z,54.22
2023-03-17T07:08:47.601Z,54.62
2023-03-17T07:14:09.065Z,53.82
2023-03-17T07:19:31.318Z,54.24
2023-03-17T07:24:52.674Z,54.14
2023-03-17T07:30:15.020Z,53.62
2023-03-17T07:35:36.308Z,53.90
2023-03-17T07:40:56.866Z,53.94
2023-03-17T07:46:17.663Z,53.81
2023-03-17T07:51:38.837Z,53.37
2023-03-17T07:56:59.538Z,52.93
2023-03-17T08:02:21.158Z,53.02
2023-03-17T08:07:41.905Z,53.22
2023-03-17T08:13:02.646Z,53.02
2023-03-17T08:18:23.736Z,52.90
2023-03-17T08:23:44.727Z,52.66
2023-03-17T08:29:05.562Z,52.52
2023-03-17T08:34:26.426Z,52.56
2023-03-17T08:39:47.274Z,52.30
2023-03-17T08:45:09.980Z,51.85
2023-03-17T08:50:31.345Z,52.46
2023-03-17T08:55:55.513Z,52.44
2023-03-17T09:01:17.044Z,52.38
2023-03-17T09:06:39.739Z,52.38
2023-03-17T09:12:06.321Z,52.11
2023-03-17T09:17:27.660Z,52.05
2023-03-17T09:22:49.187Z,52.09
2023-03-17T09:28:12.147Z,51.81
2023-03-17T09:33:33.284Z,51.69
2023-03-17T09:38:54.149Z,51.60
2023-03-17T09:44:28.803Z,51.47
2023-03-17T09:49:58.624Z,51.19
2023-03-17T09:55:28.206Z,51.52
2023-03-17T10:00:49.263Z,51.54
2023-03-17T10:06:39.262Z,51.23
2023-03-17T10:12:11.159Z,50.91
2023-03-17T10:17:36.743Z,51.33
2023-03-17T10:23:04.815Z,51.59
2023-03-17T10:28:35.773Z,51.16
2023-03-17T10:33:59.072Z,50.88
2023-03-17T10:39:22.389Z,50.97
2023-03-17T10:44:52.479Z,50.89
2023-03-17T10:50:16.850Z,50.62
2023-03-17T10:55:44.735Z,50.54
2023-03-17T11:01:15.315Z,50.64
2023-03-17T11:06:43.911Z,50.56
2023-03-17T11:12:32.842Z,50.40
2023-03-17T11:18:03.497Z,50.49
2023-03-17T11:23:50.290Z,50.11
2023-03-17T11:29:33.218Z,51.66
2023-03-17T11:35:21.976Z,50.33
2023-03-17T11:41:10.888Z,50.28
2023-03-17T11:46:46.659Z,50.24
2023-03-17T11:52:29.352Z,49.33
2023-03-17T11:58:01.481Z,49.84
2023-03-17T12:03:40.272Z,49.67
2023-03-17T12:09:30.863Z,49.29
2023-03-17T12:14:54.096Z,49.71
2023-03-17T12:20:28.021Z,49.44
2023-03-17T12:25:57.721Z,49.47
2023-03-17T12:31:25.224Z,49.00
2023-03-17T12:36:46.118Z,49.05
2023-03-17T12:42:22.102Z,49.14
2023-03-17T12:47:50.479Z,48.82
2023-03-17T12:53:33.703Z,49.08
2023-03-17T12:59:06.828Z,48.65
2023-03-17T13:04:32.967Z,48.63
2023-03-17T13:09:53.598Z,49.01
2023-03-17T13:15:48.924Z,48.72
2023-03-17T13:21:13.876Z,48.39
2023-03-17T13:26:55.420Z,48.45
2023-03-17T13:32:17.085Z,48.55
2023-03-17T13:38:08.729Z,48.46
2023-03-17T13:43:56.924Z,48.16
2023-03-17T13:49:24.225Z,48.21
2023-03-17T13:54:59.692Z,48.26
2023-03-17T14:00:24.487Z,48.43
2023-03-17T14:05:51.636Z,48.38
2023-03-17T14:11:32.357Z,48.15
2023-03-17T14:17:00.534Z,48.20
2023-03-17T14:22:24.661Z,48.01
2023-03-17T14:27:51.016Z,48.13
2023-03-17T14:33:12.034Z,48.04
2023-03-17T14:38:35.379Z,47.98
2023-03-17T14:44:00.687Z,47.83
2023-03-17T14:49:23.185Z,48.00
2023-03-17T14:54:44.476Z,47.56
2023-03-17T15:00:46.868Z,47.67
2023-03-17T15:06:13.389Z,47.76
2023-03-17T15:11:41.646Z,47.62
2023-03-17T15:17:05.233Z,47.50
2023-03-17T15:22:30.760Z,47.60
2023-03-17T15:27:52.438Z,47.46
2023-03-17T15:33:28.783Z,47.48
2023-03-17T15:38:49.545Z,46.97
2023-03-17T15:44:10.314Z,47.13
2023-03-17T15:49:31.106Z,47.24
2023-03-17T15:54:57.141Z,47.10
2023-03-17T16:00:22.885Z,47.08
2023-03-17T16:05:43.636Z,46.94
2023-03-17T16:11:04.201Z,47.20
2023-03-17T16:16:35.022Z,46.86
2023-03-17T16:21:56.389Z,46.85
2023-03-17T16:27:17.473Z,47.14
2023-03-17T16:32:38.191Z,47.00
2023-03-17T16:37:58.882Z,46.97
2023-03-17T16:43:25.139Z,46.73
2023-03-17T16:48:48.346Z,46.84
2023-03-17T16:54:10.376Z,46.96
2023-03-17T16:59:31.710Z,47.05
2023-03-17T17:04:52.636Z,46.69
2023-03-17T17:10:15.557Z,46.79
2023-03-17T17:15:37.689Z,46.83
2023-03-17T17:20:58.420Z,46.67
2023-03-17T17:26:18.978Z,46.70
2023-03-17T17:31:39.978Z,46.79
2023-03-17T17:37:00.971Z,46.58
2023-03-17T17:42:21.728Z,46.90
2023-03-17T17:47:42.819Z,47.01
2023-03-17T17:53:05.719Z,46.71
2023-03-17T17:58:26.727Z,46.73
2023-03-17T18:03:47.696Z,46.88
2023-03-17T18:09:09.658Z,46.66
2023-03-17T18:14:31.092Z,46.83
2023-03-17T18:19:55.643Z,46.83
2023-03-17T18:25:17.452Z,47.08
2023-03-17T18:30:38.545Z,46.78
2023-03-17T18:36:00.209Z,47.15
2023-03-17T18:41:20.988Z,46.81
2023-03-17T18:46:41.785Z,46.81
2023-03-17T18:52:02.515Z,46.86
2023-03-17T18:57:23.273Z,47.03
2023-03-17T19:02:44.111Z,46.98
2023-03-17T19:08:05.662Z,46.93
2023-03-17T19:13:27.344Z,46.92
2023-03-17T19:18:47.887Z,46.99
2023-03-17T19:24:10.705Z,46.87
2023-03-17T19:29:33.926Z,47.16
2023-03-17T19:34:55.001Z,47.11
2023-03-17T19:40:16.182Z,46.99
2023-03-17T19:45:37.074Z,46.90
2023-03-17T19:50:57.817Z,46.84
2023-03-17T19:56:19.052Z,46.87
2023-03-17T20:01:40.233Z,46.91
2023-03-17T20:07:01.124Z,49.33
2023-03-17T20:12:22.029Z,47.10
2023-03-17T20:17:43.363Z,46.71
2023-03-17T20:23:04.052Z,47.03
2023-03-17T20:28:25.301Z,46.85
2023-03-17T20:33:46.156Z,46.80
2023-03-17T20:39:06.913Z,46.93
2023-03-17T20:44:27.721Z,46.91
2023-03-17T20:49:48.838Z,47.07
2023-03-17T20:55:14.046Z,46.99
2023-03-17T21:00:35.557Z,46.48
2023-03-17T21:05:56.420Z,46.64
2023-03-17T21:11:20.331Z,46.71
2023-03-17T21:16:45.718Z,46.51
2023-03-17T21:22:06.892Z,46.67
2023-03-17T21:27:27.708Z,46.95
2023-03-17T21:32:48.533Z,47.20
2023-03-17T21:38:09.417Z,47.31
2023-03-17T21:43:30.524Z,47.42
2023-03-17T21:48:52.222Z,47.11
2023-03-17T21:54:14.273Z,47.01
2023-03-17T21:59:35.811Z,47.06
2023-03-17T22:04:56.901Z,47.08
2023-03-17T22:10:18.109Z,47.25
2023-03-17T22:15:38.744Z,47.06
2023-03-17T22:20:59.893Z,47.30
2023-03-17T22:26:21.952Z,47.25
2023-03-17T22:31:43.277Z,47.35
2023-03-17T22:37:04.614Z,47.28
2023-03-17T22:42:25.588Z,47.18
2023-03-17T22:47:46.569Z,47.33
2023-03-17T22:53:07.850Z,47.42
2023-03-17T22:58:29.073Z,47.75
2023-03-17T23:03:50.615Z,47.39
2023-03-17T23:09:11.320Z,47.70
2023-03-17T23:14:32.077Z,47.31
2023-03-17T23:19:53.029Z,47.83
2023-03-17T23:25:13.765Z,47.62
2023-03-17T23:30:35.797Z,47.77
2023-03-17T23:35:57.256Z,48.06
2023-03-17T23:41:18.660Z,47.62
2023-03-17T23:46:39.374Z,47.92
2023-03-17T23:52:00.050Z,47.94
2023-03-17T23:57:21.025Z,47.66
